createdAt,value
2018-03-02T00:00:32.900Z,-1.48
2018-03-02T00:02:11.582Z,-1.78
2018-03-02T00:03:48.806Z,-1.37
2018-03-02T00:05:26.207Z,-1.50
2018-03-02T00:07:03.905Z,-1.69
2018-03-02T00:08:42.422Z,-1.90
2018-03-02T00:10:21.673Z,-1.91
2018-03-02T00:12:00.320Z,-1.58
2018-03-02T00:13:38.657Z,-1.47
2018-03-02T00:15:18.990Z,-1.61
2018-03-02T00:16:58.038Z,-1.62
2018-03-02T00:18:36.482Z,-1.78
2018-03-02T00:20:14.395Z,-1.85
2018-03-02T00:21:52.897Z,-1.81
2018-03-02T00:23:30.313Z,-1.81
2018-03-02T00:25:07.960Z,-1.58
2018-03-02T00:26:45.658Z,-1.65
2018-03-02T00:28:23.935Z,-1.62
2018-03-02T00:30:01.760Z,-1.72
2018-03-02T00:31:39.959Z,-1.86
2018-03-02T00:33:17.730Z,-1.95
2018-03-02T00:34:56.206Z,-1.75
2018-03-02T00:36:34.635Z,-1.64
2018-03-02T00:38:12.451Z,-1.82
2018-03-02T00:39:50.312Z,-2.07
2018-03-02T00:41:29.223Z,-1.72
2018-03-02T00:43:07.600Z,-1.73
2018-03-02T00:44:45.221Z,-1.89
2018-03-02T00:46:23.215Z,-1.86
2018-03-02T00:48:01.347Z,-2.06
2018-03-02T00:49:39.107Z,-2.10
2018-03-02T00:51:16.889Z,-2.21
2018-03-02T00:52:54.844Z,-2.19
2018-03-02T00:54:39.293Z,-2.05
2018-03-02T00:56:17.090Z,-1.66
2018-03-02T00:57:54.772Z,-1.74
2018-03-02T00:59:33.099Z,-1.90
2018-03-02T01:01:12.080Z,-1.94
2018-03-02T01:02:49.855Z,-2.00
2018-03-02T01:04:27.606Z,-2.16
2018-03-02T01:06:05.581Z,-2.33
2018-03-02T01:07:43.900Z,-2.06
2018-03-02T01:09:22.629Z,-2.28
2018-03-02T01:11:06.651Z,-2.28
2018-03-02T01:12:44.197Z,-2.24
2018-03-02T01:14:24.597Z,-1.95
2018-03-02T01:16:02.962Z,-2.24
2018-03-02T01:17:40.853Z,-2.23
2018-03-02T01:19:19.483Z,-2.01
2018-03-02T01:20:57.771Z,-2.08
2018-03-02T01:22:35.696Z,-2.41
2018-03-02T01:24:13.882Z,-2.51
2018-03-02T01:25:51.539Z,-2.49
2018-03-02T01:27:31.552Z,-2.63
2018-03-02T01:29:09.559Z,-2.67
2018-03-02T01:30:48.109Z,-2.63
2018-03-02T01:32:26.515Z,-2.62
2018-03-02T01:34:04.962Z,-2.68
2018-03-02T01:35:43.484Z,-2.49
2018-03-02T01:37:22.187Z,-2.65
2018-03-02T01:38:59.887Z,-2.73
2018-03-02T01:40:38.701Z,-2.60
2018-03-02T01:42:16.553Z,-2.73
2018-03-02T01:43:54.574Z,-2.66
2018-03-02T01:45:32.533Z,-2.68
2018-03-02T01:47:10.734Z,-2.56
2018-03-02T01:48:48.591Z,-2.65
2018-03-02T01:50:26.494Z,-2.75
2018-03-02T01:52:05.512Z,-2.95
2018-03-02T01:53:43.522Z,-2.56
2018-03-02T01:55:22.431Z,-2.54
2018-03-02T01:57:00.502Z,-2.64
2018-03-02T01:58:38.292Z,-2.75
2018-03-02T02:00:18.345Z,-2.81
2018-03-02T02:01:57.126Z,-2.94
2018-03-02T02:03:35.140Z,-3.11
2018-03-02T02:05:13.656Z,-3.07
2018-03-02T02:06:56.078Z,-3.13
2018-03-02T02:08:37.623Z,-3.02
2018-03-02T02:10:15.329Z,-3.09
2018-03-02T02:11:52.877Z,-3.04
2018-03-02T02:13:34.903Z,-3.09
2018-03-02T02:15:12.683Z,-3.11
2018-03-02T02:16:53.779Z,-2.72
2018-03-02T02:18:32.038Z,-2.69
2018-03-02T02:20:10.147Z,-2.82
2018-03-02T02:21:48.053Z,-2.91
2018-03-02T02:23:25.647Z,-3.14
2018-03-02T02:25:08.627Z,-3.06
2018-03-02T02:26:49.184Z,-3.10
2018-03-02T02:28:26.931Z,-3.09
2018-03-02T02:30:04.938Z,-3.09
2018-03-02T02:31:43.022Z,-3.21
2018-03-02T02:33:20.580Z,-3.32
2018-03-02T02:34:58.101Z,-3.40
2018-03-02T02:36:35.648Z,-3.37
2018-03-02T02:38:13.814Z,-3.23
2018-03-02T02:39:51.044Z,-3.26
2018-03-02T02:41:28.317Z,-2.94
2018-03-02T02:43:06.055Z,-3.01
2018-03-02T02:44:44.060Z,-2.97
2018-03-02T02:46:21.618Z,-2.86
2018-03-02T02:47:59.501Z,-2.91
2018-03-02T02:49:36.598Z,-2.83
2018-03-02T02:51:14.551Z,-2.64
2018-03-02T02:52:52.457Z,-2.96
2018-03-02T02:54:29.437Z,-3.15
2018-03-02T02:56:06.585Z,-3.19
2018-03-02T02:57:44.955Z,-3.21
2018-03-02T02:59:21.845Z,-3.25
2018-03-02T03:01:00.038Z,-3.38
2018-03-02T03:02:37.444Z,-3.41
2018-03-02T03:04:15.397Z,-3.36
2018-03-02T03:05:52.697Z,-3.05
2018-03-02T03:07:30.846Z,-2.99
2018-03-02T03:09:08.168Z,-3.17
2018-03-02T03:10:46.022Z,-3.37
2018-03-02T03:12:23.381Z,-3.37
2018-03-02T03:14:01.542Z,-3.41
2018-03-02T03:15:38.991Z,-3.22
2018-03-02T03:17:16.425Z,-3.22
2018-03-02T03:18:53.730Z,-3.33
2018-03-02T03:20:30.815Z,-3.43
2018-03-02T03:22:07.901Z,-3.46
2018-03-02T03:23:46.379Z,-3.30
2018-03-02T03:25:23.479Z,-3.24
2018-03-02T03:27:00.807Z,-3.46
2018-03-02T03:28:37.831Z,-3.51
2018-03-02T03:30:17.322Z,-3.42
2018-03-02T03:31:54.488Z,-3.20
2018-03-02T03:33:31.415Z,-3.24
2018-03-02T03:35:08.129Z,-3.38
2018-03-02T03:36:46.060Z,-3.43
2018-03-02T03:38:22.954Z,-3.37
2018-03-02T03:40:00.051Z,-3.37
2018-03-02T03:41:37.002Z,-3.50
2018-03-02T03:43:15.711Z,-3.60
2018-03-02T03:44:52.948Z,-3.70
2018-03-02T03:46:30.934Z,-3.62
2018-03-02T03:48:07.868Z,-3.38
2018-03-02T03:49:45.220Z,-3.35
2018-03-02T03:51:22.192Z,-3.40
2018-03-02T03:52:59.464Z,-3.25
2018-03-02T03:54:36.503Z,-3.24
2018-03-02T03:56:13.523Z,-3.48
2018-03-02T03:57:50.754Z,-3.54
2018-03-02T03:59:28.642Z,-3.57
2018-03-02T04:01:05.766Z,-3.38
2018-03-02T04:02:44.062Z,-3.35
2018-03-02T04:04:20.736Z,-3.28
2018-03-02T04:05:58.215Z,-3.23
2018-03-02T04:07:35.818Z,-3.36
2018-03-02T04:09:13.328Z,-3.46
2018-03-02T04:10:51.336Z,-3.37
2018-03-02T04:12:29.065Z,-3.49
2018-03-02T04:14:06.102Z,-3.34
2018-03-02T04:15:43.714Z,-3.21
2018-03-02T04:17:20.545Z,-3.47
2018-03-02T04:18:57.888Z,-3.63
2018-03-02T04:20:34.862Z,-3.77
2018-03-02T04:22:11.846Z,-3.61
2018-03-02T04:23:48.581Z,-3.64
2018-03-02T04:25:26.417Z,-3.52
2018-03-02T04:27:03.740Z,-3.53
2018-03-02T04:28:40.997Z,-3.27
2018-03-02T04:30:21.114Z,-3.24
2018-03-02T04:31:58.126Z,-3.26
2018-03-02T04:33:34.940Z,-3.24
2018-03-02T04:35:12.476Z,-3.39
2018-03-02T04:36:49.703Z,-3.40
2018-03-02T04:38:26.641Z,-3.32
2018-03-02T04:40:03.792Z,-3.40
2018-03-02T04:41:41.122Z,-3.56
2018-03-02T04:43:17.884Z,-3.61
2018-03-02T04:44:55.402Z,-3.68
2018-03-02T04:46:32.557Z,-3.75
2018-03-02T04:48:10.628Z,-3.67
2018-03-02T04:49:48.001Z,-3.68
2018-03-02T04:51:25.118Z,-3.67
2018-03-02T04:53:02.020Z,-3.68
2018-03-02T04:54:39.387Z,-3.50
2018-03-02T04:56:16.130Z,-3.50
2018-03-02T04:57:53.678Z,-3.47
2018-03-02T04:59:30.796Z,-3.75
2018-03-02T05:01:08.264Z,-3.60
2018-03-02T05:02:44.952Z,-3.44
2018-03-02T05:04:21.697Z,-3.51
2018-03-02T05:05:58.728Z,-3.42
2018-03-02T05:07:36.873Z,-3.53
2018-03-02T05:09:13.996Z,-3.53
2018-03-02T05:10:51.068Z,-3.34
2018-03-02T05:12:27.747Z,-3.58
2018-03-02T05:14:05.286Z,-3.67
2018-03-02T05:15:43.697Z,-3.89
2018-03-02T05:17:20.909Z,-3.91
2018-03-02T05:18:58.498Z,-3.80
2018-03-02T05:20:37.614Z,-3.96
2018-03-02T05:22:15.172Z,-4.00
2018-03-02T05:23:53.068Z,-3.99
2018-03-02T05:25:31.168Z,-3.83
2018-03-02T05:27:08.711Z,-3.90
2018-03-02T05:28:46.616Z,-3.54
2018-03-02T05:30:26.084Z,-3.72
2018-03-02T05:32:04.903Z,-3.72
2018-03-02T05:33:42.841Z,-3.97
2018-03-02T05:35:20.734Z,-4.08
2018-03-02T05:36:58.556Z,-3.99
2018-03-02T05:38:37.028Z,-4.02
2018-03-02T05:40:14.983Z,-4.07
2018-03-02T05:41:52.375Z,-4.08
2018-03-02T05:43:30.038Z,-3.84
2018-03-02T05:45:08.171Z,-3.65
2018-03-02T05:46:46.620Z,-3.73
2018-03-02T05:48:24.292Z,-4.04
2018-03-02T05:50:01.841Z,-4.13
2018-03-02T05:53:22.941Z,-3.95
2018-03-02T05:55:00.767Z,-3.57
2018-03-02T05:56:38.368Z,-3.74
2018-03-02T05:58:16.129Z,-3.94
2018-03-02T05:59:54.373Z,-4.07
2018-03-02T06:01:33.285Z,-4.13
2018-03-02T06:03:11.335Z,-4.02
2018-03-02T06:04:49.473Z,-3.93
2018-03-02T06:06:28.613Z,-4.00
2018-03-02T06:08:06.430Z,-4.02
2018-03-02T06:09:44.802Z,-3.86
2018-03-02T06:11:22.663Z,-4.04
2018-03-02T06:13:00.701Z,-3.90
2018-03-02T06:14:38.281Z,-4.04
2018-03-02T06:16:16.721Z,-4.26
2018-03-02T06:17:55.021Z,-4.01
2018-03-02T06:19:34.327Z,-4.18
2018-03-02T06:21:12.272Z,-3.73
2018-03-02T06:22:50.034Z,-3.95
2018-03-02T06:24:28.708Z,-3.73
2018-03-02T06:26:06.843Z,-3.85
2018-03-02T06:27:45.515Z,-3.86
2018-03-02T06:29:23.587Z,-4.01
2018-03-02T06:31:01.923Z,-4.04
2018-03-02T06:32:40.376Z,-3.72
2018-03-02T06:34:19.683Z,-3.86
2018-03-02T06:35:57.444Z,-3.94
2018-03-02T06:37:35.385Z,-4.02
2018-03-02T06:39:14.671Z,-4.07
2018-03-02T06:40:52.440Z,-3.93
2018-03-02T06:42:31.621Z,-4.00
2018-03-02T06:44:10.014Z,-4.00
2018-03-02T06:45:48.119Z,-4.10
2018-03-02T06:47:26.156Z,-3.99
2018-03-02T06:49:04.377Z,-3.89
2018-03-02T06:50:42.226Z,-3.97
2018-03-02T06:52:20.599Z,-3.83
2018-03-02T06:53:58.574Z,-3.83
2018-03-02T06:55:36.612Z,-3.57
2018-03-02T06:57:14.485Z,-3.33
2018-03-02T06:58:52.632Z,-3.20
2018-03-02T07:00:31.368Z,-3.50
2018-03-02T07:02:09.054Z,-3.60
2018-03-02T07:03:46.798Z,-3.82
2018-03-02T07:05:24.962Z,-3.76
2018-03-02T07:07:02.794Z,-3.36
2018-03-02T07:08:40.358Z,-3.31
2018-03-02T07:10:18.022Z,-3.42
2018-03-02T07:11:55.907Z,-3.68
2018-03-02T07:13:33.561Z,-3.74
2018-03-02T07:15:13.191Z,-3.63
2018-03-02T07:16:50.752Z,-3.56
2018-03-02T07:18:29.733Z,-3.45
2018-03-02T07:20:08.424Z,-3.78
2018-03-02T07:21:46.180Z,-3.74
2018-03-02T07:23:24.151Z,-3.90
2018-03-02T07:25:02.138Z,-4.02
2018-03-02T07:26:39.958Z,-3.81
2018-03-02T07:28:17.846Z,-3.44
2018-03-02T07:29:55.456Z,-3.15
2018-03-02T07:31:34.035Z,-3.32
2018-03-02T07:33:13.338Z,-3.56
2018-03-02T07:34:50.959Z,-3.57
2018-03-02T07:36:29.586Z,-3.38
2018-03-02T07:38:07.302Z,-3.13
2018-03-02T07:39:45.026Z,-3.13
2018-03-02T07:41:23.516Z,-3.17
2018-03-02T07:43:01.290Z,-3.45
2018-03-02T07:44:39.343Z,-3.42
2018-03-02T07:46:17.012Z,-3.47
2018-03-02T07:47:54.718Z,-3.50
2018-03-02T07:49:32.174Z,-3.79
2018-03-02T07:51:11.883Z,-3.77
2018-03-02T07:52:51.530Z,-3.60
2018-03-02T07:54:29.411Z,-3.36
2018-03-02T07:56:08.327Z,-3.50
2018-03-02T07:57:47.590Z,-3.42
2018-03-02T07:59:25.440Z,-3.41
2018-03-02T08:01:02.953Z,-3.55
2018-03-02T08:02:40.997Z,-3.55
2018-03-02T08:04:20.014Z,-3.38
2018-03-02T08:05:57.914Z,-3.50
2018-03-02T08:07:36.291Z,-3.32
2018-03-02T08:09:13.906Z,-3.48
2018-03-02T08:10:51.781Z,-3.57
2018-03-02T08:12:30.253Z,-3.65
2018-03-02T08:14:07.777Z,-3.55
2018-03-02T08:15:47.484Z,-3.52
2018-03-02T08:17:25.240Z,-3.52
2018-03-02T08:19:02.642Z,-3.32
2018-03-02T08:20:39.820Z,-3.06
2018-03-02T08:22:17.862Z,-3.13
2018-03-02T08:23:55.579Z,-3.24
2018-03-02T08:25:33.006Z,-3.27
2018-03-02T08:27:10.776Z,-3.09
2018-03-02T08:28:48.290Z,-2.96
2018-03-02T08:30:26.320Z,-3.02
2018-03-02T08:32:05.552Z,-3.08
2018-03-02T08:33:43.920Z,-2.83
2018-03-02T08:35:22.075Z,-2.57
2018-03-02T08:37:01.738Z,-2.68
2018-03-02T08:38:39.263Z,-2.59
2018-03-02T08:40:17.828Z,-2.27
2018-03-02T08:41:55.265Z,-2.00
2018-03-02T08:43:33.516Z,-2.17
2018-03-02T08:45:13.822Z,-2.26
2018-03-02T08:46:51.139Z,-2.60
2018-03-02T08:48:29.428Z,-2.79
2018-03-02T08:50:07.265Z,-2.70
2018-03-02T08:51:44.644Z,-2.71
2018-03-02T08:53:25.034Z,-2.42
2018-03-02T08:55:02.524Z,-2.60
2018-03-02T08:56:40.510Z,-2.45
2018-03-02T08:58:18.490Z,-2.47
2018-03-02T08:59:55.542Z,-2.41
2018-03-02T09:01:32.928Z,-2.30
2018-03-02T09:03:12.443Z,-1.98
2018-03-02T09:04:49.449Z,-2.20
2018-03-02T09:06:26.976Z,-2.41
2018-03-02T09:08:04.495Z,-2.33
2018-03-02T09:09:42.249Z,-2.09
2018-03-02T09:13:06.538Z,-1.83
2018-03-02T09:14:43.793Z,-1.72
2018-03-02T09:16:21.379Z,-1.68
2018-03-02T09:17:58.941Z,-1.62
2018-03-02T09:19:36.445Z,-1.56
2018-03-02T09:21:14.428Z,-1.63
2018-03-02T09:22:52.028Z,-1.76
2018-03-02T09:24:29.259Z,-1.75
2018-03-02T09:26:06.922Z,-1.73
2018-03-02T09:27:44.895Z,-1.78
2018-03-02T09:29:22.669Z,-1.83
2018-03-02T09:31:00.809Z,-1.86
2018-03-02T09:32:39.955Z,-1.83
2018-03-02T09:34:17.503Z,-1.80
2018-03-02T09:35:55.327Z,-1.78
2018-03-02T09:37:32.890Z,-1.37
2018-03-02T09:39:10.419Z,-1.38
2018-03-02T09:40:47.681Z,-1.20
2018-03-02T09:42:26.479Z,-1.05
2018-03-02T09:44:03.742Z,-1.07
2018-03-02T09:45:42.044Z,-0.90
2018-03-02T09:47:20.346Z,-0.61
2018-03-02T09:48:58.808Z,-0.60
2018-03-02T09:50:36.415Z,-0.42
2018-03-02T09:52:14.104Z,-0.75
2018-03-02T09:53:52.160Z,-0.94
2018-03-02T09:55:30.046Z,-0.61
2018-03-02T09:57:07.587Z,-0.60
2018-03-02T09:58:45.076Z,-0.82
2018-03-02T10:00:25.618Z,-0.63
2018-03-02T10:02:02.870Z,-0.56
2018-03-02T10:03:41.245Z,-0.13
2018-03-02T10:05:18.499Z,-0.05
2018-03-02T10:06:56.513Z,0.32
2018-03-02T10:08:35.445Z,0.04
2018-03-02T10:10:13.699Z,-0.42
2018-03-02T10:11:50.996Z,-0.48
2018-03-02T10:13:29.093Z,-0.69
2018-03-02T10:15:08.235Z,-0.79
2018-03-02T10:16:45.515Z,-0.69
2018-03-02T10:18:23.456Z,-0.60
2018-03-02T10:20:00.725Z,-0.45
2018-03-02T10:21:39.873Z,-0.40
2018-03-02T10:23:17.798Z,-0.32
2018-03-02T10:24:54.893Z,-0.26
2018-03-02T10:26:32.138Z,-0.29
2018-03-02T10:28:09.682Z,-0.26
2018-03-02T10:30:42.733Z,0.17
2018-03-02T10:32:20.097Z,0.05
2018-03-02T10:33:58.613Z,-0.19
2018-03-02T10:35:35.956Z,-0.22
2018-03-02T10:37:14.142Z,-0.20
2018-03-02T10:38:51.538Z,-0.19
2018-03-02T10:40:30.659Z,-0.25
2018-03-02T10:42:08.020Z,-0.31
2018-03-02T10:43:45.359Z,-0.25
2018-03-02T10:45:23.563Z,-0.20
2018-03-02T10:47:02.023Z,0.04
2018-03-02T10:48:39.374Z,0.04
2018-03-02T10:50:16.485Z,-0.01
2018-03-02T10:51:55.966Z,0.06
2018-03-02T10:53:35.317Z,0.29
2018-03-02T10:55:12.869Z,0.26
2018-03-02T10:56:50.053Z,0.39
2018-03-02T10:58:27.989Z,0.61
2018-03-02T11:00:08.688Z,0.61
2018-03-02T11:01:51.302Z,0.42
2018-03-02T11:03:28.683Z,0.31
2018-03-02T11:05:09.814Z,0.94
2018-03-02T11:06:48.576Z,1.28
2018-03-02T11:10:07.639Z,0.68
2018-03-02T11:11:52.048Z,1.09
2018-03-02T11:15:25.281Z,1.06
2018-03-02T11:17:03.703Z,0.89
2018-03-02T11:18:40.986Z,0.44
2018-03-02T11:20:19.791Z,0.28
2018-03-02T11:22:16.391Z,0.33
2018-03-02T11:23:53.631Z,0.47
2018-03-02T11:25:31.504Z,0.35
2018-03-02T11:27:08.558Z,0.39
2018-03-02T11:28:46.545Z,0.43
2018-03-02T11:30:26.121Z,0.31
2018-03-02T11:32:04.361Z,0.48
2018-03-02T11:33:41.686Z,0.89
2018-03-02T11:35:20.432Z,1.07
2018-03-02T11:36:57.491Z,0.88
2018-03-02T11:38:36.267Z,0.97
2018-03-02T11:40:13.697Z,1.19
2018-03-02T11:41:50.748Z,1.32
2018-03-02T11:43:28.556Z,1.29
2018-03-02T11:45:06.634Z,1.10
2018-03-02T11:46:44.359Z,1.17
2018-03-02T11:48:21.463Z,1.32
2018-03-02T11:50:00.112Z,1.21
2018-03-02T11:51:38.690Z,1.12
2018-03-02T11:53:15.892Z,0.95
2018-03-02T11:54:52.926Z,1.00
2018-03-02T11:56:29.900Z,1.00
2018-03-02T11:58:07.597Z,1.05
2018-03-02T11:59:45.564Z,1.13
2018-03-02T12:01:23.909Z,1.09
2018-03-02T12:03:01.782Z,1.30
2018-03-02T12:04:39.984Z,1.44
2018-03-02T12:06:17.106Z,1.55
2018-03-02T12:07:54.347Z,1.66
2018-03-02T12:09:32.275Z,1.69
2018-03-02T12:11:10.581Z,1.78
2018-03-02T12:12:47.695Z,1.79
2018-03-02T12:14:24.708Z,2.15
2018-03-02T12:16:02.185Z,2.16
2018-03-02T12:17:40.324Z,2.22
2018-03-02T12:19:17.366Z,2.35
2018-03-02T12:20:54.284Z,2.46
2018-03-02T12:22:31.472Z,2.19
2018-03-02T12:24:08.949Z,1.99
2018-03-02T12:25:45.982Z,1.91
2018-03-02T12:27:22.979Z,2.22
2018-03-02T12:29:00.699Z,2.10
2018-03-02T12:30:39.543Z,2.21
2018-03-02T12:32:17.344Z,2.05
2018-03-02T12:33:54.899Z,2.25
2018-03-02T12:35:31.927Z,2.15
2018-03-02T12:37:09.458Z,2.59
2018-03-02T12:38:46.968Z,2.85
2018-03-02T12:40:23.905Z,2.93
2018-03-02T12:42:00.817Z,3.01
2018-03-02T12:43:39.284Z,3.04
2018-03-02T12:45:17.863Z,2.74
2018-03-02T12:46:55.105Z,2.59
2018-03-02T12:48:32.768Z,2.95
2018-03-02T12:50:10.219Z,2.83
2018-03-02T12:51:49.478Z,2.61
2018-03-02T12:53:26.726Z,3.00
2018-03-02T12:55:03.932Z,2.82
2018-03-02T12:56:42.336Z,2.60
2018-03-02T12:58:20.396Z,2.55
2018-03-02T12:59:57.506Z,2.84
2018-03-02T13:01:35.523Z,2.76
2018-03-02T13:03:12.667Z,2.80
2018-03-02T13:04:49.710Z,2.95
2018-03-02T13:06:26.811Z,3.03
2018-03-02T13:08:04.594Z,3.42
2018-03-02T13:09:41.690Z,3.83
2018-03-02T13:11:19.399Z,4.25
2018-03-02T13:12:56.443Z,3.92
2018-03-02T13:14:33.954Z,3.33
2018-03-02T13:16:11.415Z,3.14
2018-03-02T13:17:48.664Z,3.19
2018-03-02T13:19:26.702Z,3.19
2018-03-02T13:21:03.972Z,3.05
2018-03-02T13:22:42.541Z,3.02
2018-03-02T13:24:20.322Z,2.99
2018-03-02T13:25:57.569Z,3.00
2018-03-02T13:27:50.931Z,2.91
2018-03-02T13:29:28.872Z,3.12
2018-03-02T13:31:06.203Z,3.27
2018-03-02T13:32:45.193Z,3.27
2018-03-02T13:35:27.061Z,3.39
2018-03-02T13:37:04.405Z,3.43
2018-03-02T13:38:42.614Z,3.44
2018-03-02T13:42:05.316Z,3.45
2018-03-02T13:43:43.163Z,3.85
2018-03-02T13:45:21.305Z,3.49
2018-03-02T13:47:00.510Z,3.34
2018-03-02T13:49:54.382Z,3.42
2018-03-02T13:51:33.120Z,3.20
2018-03-02T13:53:10.658Z,3.02
2018-03-02T13:54:47.984Z,3.12
2018-03-02T13:56:37.789Z,3.24
2018-03-02T13:58:15.531Z,3.35
2018-03-02T13:59:52.664Z,3.31
2018-03-02T14:01:30.710Z,3.59
2018-03-02T14:05:19.957Z,3.51
2018-03-02T14:06:57.050Z,3.43
2018-03-02T14:08:35.257Z,3.43
2018-03-02T14:10:12.623Z,3.36
2018-03-02T14:11:49.690Z,3.46
2018-03-02T14:13:26.712Z,3.66
2018-03-02T14:15:03.634Z,3.42
2018-03-02T14:16:41.971Z,3.45
2018-03-02T14:18:19.142Z,3.36
2018-03-02T14:19:57.010Z,3.24
2018-03-02T14:21:33.874Z,3.30
2018-03-02T14:23:11.390Z,3.37
2018-03-02T14:24:48.501Z,3.18
2018-03-02T14:26:25.627Z,3.08
2018-03-02T14:28:03.454Z,3.06
2018-03-02T14:29:41.224Z,3.21
2018-03-02T14:31:18.629Z,3.36
2018-03-02T14:32:55.746Z,3.07
2018-03-02T14:34:33.406Z,2.83
2018-03-02T14:36:16.308Z,2.81
2018-03-02T14:37:54.602Z,2.87
2018-03-02T14:39:32.642Z,2.99
2018-03-02T14:41:23.900Z,2.96
2018-03-02T14:45:55.926Z,2.79
2018-03-02T14:47:33.031Z,2.77
2018-03-02T14:49:09.875Z,2.95
2018-03-02T14:50:47.512Z,2.98
2018-03-02T14:52:26.593Z,3.34
2018-03-02T14:56:12.950Z,3.41
2018-03-02T14:57:50.898Z,3.26
2018-03-02T14:59:28.552Z,3.07
2018-03-02T15:01:06.441Z,2.89
2018-03-02T15:02:44.900Z,2.79
2018-03-02T15:04:21.873Z,2.85
2018-03-02T15:05:59.015Z,2.90
2018-03-02T15:07:36.088Z,2.91
2018-03-02T15:09:14.233Z,2.77
2018-03-02T15:10:51.428Z,2.72
2018-03-02T15:12:28.578Z,2.78
2018-03-02T15:14:05.724Z,2.87
2018-03-02T15:15:44.179Z,3.05
2018-03-02T15:17:22.156Z,3.22
2018-03-02T15:18:59.281Z,3.17
2018-03-02T15:20:36.380Z,3.06
2018-03-02T15:22:18.338Z,2.88
2018-03-02T15:23:55.603Z,2.81
2018-03-02T15:25:33.422Z,2.97
2018-03-02T15:27:10.629Z,2.86
2018-03-02T15:28:48.227Z,2.87
2018-03-02T15:30:27.443Z,2.87
2018-03-02T15:32:04.678Z,2.96
2018-03-02T15:35:12.793Z,3.05
2018-03-02T15:36:50.118Z,3.13
2018-03-02T15:38:29.053Z,3.09
2018-03-02T15:40:06.756Z,3.02
2018-03-02T15:41:44.986Z,3.11
2018-03-02T15:43:22.409Z,3.09
2018-03-02T15:45:00.282Z,2.90
2018-03-02T15:46:39.182Z,2.90
2018-03-02T15:48:16.816Z,3.22
2018-03-02T15:49:55.014Z,3.17
2018-03-02T15:51:32.057Z,3.22
2018-03-02T15:53:09.402Z,3.40
2018-03-02T15:54:48.043Z,3.39
2018-03-02T15:56:27.874Z,3.38
2018-03-02T15:58:05.914Z,3.89
2018-03-02T15:59:43.240Z,3.93
2018-03-02T16:01:22.939Z,3.82
2018-03-02T16:03:01.077Z,3.56
2018-03-02T16:04:38.195Z,3.44
2018-03-02T16:06:17.036Z,3.45
2018-03-02T16:07:55.567Z,3.66
2018-03-02T16:09:34.418Z,3.59
2018-03-02T16:11:11.726Z,3.52
2018-03-02T16:12:49.067Z,3.25
2018-03-02T16:14:26.230Z,3.20
2018-03-02T16:16:04.008Z,3.09
2018-03-02T16:17:41.693Z,3.32
2018-03-02T16:19:19.661Z,3.15
2018-03-02T16:20:57.636Z,3.04
2018-03-02T16:22:35.183Z,3.17
2018-03-02T16:24:12.380Z,3.29
2018-03-02T16:25:49.447Z,3.31
2018-03-02T16:27:28.627Z,3.04
2018-03-02T16:29:06.183Z,3.06
2018-03-02T16:30:43.917Z,3.06
2018-03-02T16:32:21.191Z,3.10
2018-03-02T16:35:43.542Z,3.11
2018-03-02T16:37:20.656Z,3.23
2018-03-02T16:40:40.787Z,3.54
2018-03-02T16:42:17.940Z,3.51
2018-03-02T16:45:30.201Z,3.40
2018-03-02T16:47:07.869Z,3.05
2018-03-02T16:48:45.098Z,2.96
2018-03-02T16:50:22.984Z,3.02
2018-03-02T16:52:00.314Z,3.13
2018-03-02T16:53:38.644Z,3.40
2018-03-02T16:55:15.735Z,3.40
2018-03-02T16:56:53.643Z,3.68
2018-03-02T16:58:31.280Z,3.77
2018-03-02T17:00:10.073Z,3.51
2018-03-02T17:01:47.395Z,3.53
2018-03-02T17:03:24.373Z,3.36
2018-03-02T17:05:01.652Z,3.21
2018-03-02T17:06:39.141Z,3.08
2018-03-02T17:08:16.940Z,3.00
2018-03-02T17:09:54.851Z,2.98
2018-03-02T17:11:31.953Z,2.93
2018-03-02T17:13:11.891Z,2.91
2018-03-02T17:14:49.067Z,2.87
2018-03-02T17:16:26.364Z,2.68
2018-03-02T17:18:03.450Z,2.56
2018-03-02T17:19:40.406Z,2.43
2018-03-02T17:21:17.511Z,2.39
2018-03-02T17:22:55.189Z,2.40
2018-03-02T17:24:33.064Z,2.39
2018-03-02T17:26:10.248Z,2.34
2018-03-02T17:27:47.357Z,2.34
2018-03-02T17:29:24.459Z,2.39
2018-03-02T17:31:02.642Z,2.49
2018-03-02T17:32:39.759Z,2.59
2018-03-02T17:34:17.546Z,3.01
2018-03-02T17:35:56.330Z,3.04
2018-03-02T17:37:34.871Z,3.16
2018-03-02T17:39:12.687Z,3.55
2018-03-02T17:40:49.834Z,3.95
2018-03-02T17:42:27.044Z,4.34
2018-03-02T17:44:04.627Z,4.56
2018-03-02T17:45:42.221Z,4.45
2018-03-02T17:47:19.271Z,4.43
2018-03-02T17:48:56.589Z,4.48
2018-03-02T17:50:33.992Z,4.39
2018-03-02T17:52:12.628Z,4.44
2018-03-02T17:53:49.761Z,4.20
2018-03-02T17:55:26.983Z,4.42
2018-03-02T17:57:05.455Z,4.58
2018-03-02T17:58:42.445Z,4.68
2018-03-02T18:00:20.794Z,4.67
2018-03-02T18:01:58.241Z,4.09
2018-03-02T18:03:37.862Z,3.23
2018-03-02T18:05:15.287Z,2.99
2018-03-02T18:06:53.147Z,3.46
2018-03-02T18:08:31.611Z,3.21
2018-03-02T18:10:09.035Z,2.70
2018-03-02T18:11:46.311Z,2.26
2018-03-02T18:13:25.296Z,2.32
2018-03-02T18:15:05.642Z,2.76
2018-03-02T18:16:44.401Z,2.66
2018-03-02T18:18:21.623Z,2.34
2018-03-02T18:19:59.144Z,2.35
2018-03-02T18:21:36.886Z,2.49
2018-03-02T18:23:14.541Z,3.00
2018-03-02T18:26:24.375Z,3.26
2018-03-02T18:28:01.808Z,3.63
2018-03-02T18:29:40.146Z,3.90
2018-03-02T18:31:18.464Z,4.09
2018-03-02T18:32:58.259Z,4.16
2018-03-02T18:34:35.576Z,4.10
2018-03-02T18:36:14.217Z,3.90
2018-03-02T18:37:51.652Z,3.31
2018-03-02T18:39:28.878Z,2.78
2018-03-02T18:41:05.993Z,2.75
2018-03-02T18:42:43.735Z,3.10
2018-03-02T18:44:20.667Z,3.00
2018-03-02T18:45:58.064Z,3.15
2018-03-02T18:47:35.176Z,2.74
2018-03-02T18:49:13.550Z,2.41
2018-03-02T18:50:51.600Z,1.95
2018-03-02T18:52:29.125Z,1.51
2018-03-02T18:54:06.200Z,1.31
2018-03-02T18:55:44.507Z,1.01
2018-03-02T18:57:22.359Z,0.69
2018-03-02T18:59:01.124Z,0.46
2018-03-02T19:00:39.331Z,0.27
2018-03-02T19:02:17.021Z,0.20
2018-03-02T19:03:54.096Z,0.29
2018-03-02T19:05:31.453Z,0.35
2018-03-02T19:07:08.738Z,0.38
2018-03-02T19:08:47.084Z,0.32
2018-03-02T19:10:24.059Z,0.31
2018-03-02T19:12:01.225Z,0.29
2018-03-02T19:13:38.456Z,0.28
2018-03-02T19:15:19.445Z,0.35
2018-03-02T19:16:56.857Z,0.40
2018-03-02T19:18:36.762Z,0.47
2018-03-02T19:20:13.964Z,0.53
2018-03-02T19:21:51.865Z,0.54
2018-03-02T19:23:29.275Z,0.57
2018-03-02T19:25:06.373Z,0.60
2018-03-02T19:26:43.582Z,0.62
2018-03-02T19:28:22.193Z,0.62
2018-03-02T19:29:59.787Z,0.66
2018-03-02T19:31:36.979Z,0.72
2018-03-02T19:33:14.726Z,0.73
2018-03-02T19:34:51.883Z,0.75
2018-03-02T19:36:29.248Z,0.89
2018-03-02T19:38:06.904Z,1.10
2018-03-02T19:39:44.022Z,1.72
2018-03-02T19:41:22.445Z,2.21
2018-03-02T19:43:00.170Z,2.37
2018-03-02T19:44:37.520Z,2.44
2018-03-02T19:46:15.836Z,2.40
2018-03-02T19:47:55.251Z,2.48
2018-03-02T19:49:33.579Z,2.59
2018-03-02T19:51:11.255Z,2.67
2018-03-02T19:52:48.452Z,2.68
2018-03-02T19:54:26.335Z,2.56
2018-03-02T19:56:04.582Z,2.68
2018-03-02T19:57:41.611Z,2.37
2018-03-02T19:59:19.271Z,1.87
2018-03-02T20:00:57.124Z,1.60
2018-03-02T20:02:34.174Z,1.56
2018-03-02T20:04:11.322Z,1.33
2018-03-02T20:05:49.221Z,1.07
2018-03-02T20:07:27.023Z,1.07
2018-03-02T20:09:04.406Z,1.02
2018-03-02T20:10:41.398Z,1.20
2018-03-02T20:12:19.538Z,1.67
2018-03-02T20:13:56.754Z,2.17
2018-03-02T20:15:34.068Z,2.29
2018-03-02T20:17:11.382Z,2.31
2018-03-02T20:18:48.701Z,2.33
2018-03-02T20:20:25.541Z,2.57
2018-03-02T20:22:02.948Z,2.32
2018-03-02T20:23:40.235Z,1.85
2018-03-02T20:25:17.958Z,2.02
2018-03-02T20:26:57.242Z,2.04
2018-03-02T20:28:35.798Z,2.21
2018-03-02T20:30:12.871Z,1.45
2018-03-02T20:31:53.116Z,1.11
2018-03-02T20:33:31.373Z,1.32
2018-03-02T20:35:08.693Z,1.69
2018-03-02T20:36:45.932Z,1.10
2018-03-02T20:38:23.522Z,0.75
2018-03-02T20:40:01.043Z,0.44
2018-03-02T20:41:38.252Z,0.25
2018-03-02T20:43:15.438Z,0.14
2018-03-02T20:44:52.910Z,-0.16
2018-03-02T20:46:30.193Z,0.18
2018-03-02T20:48:14.246Z,0.18
2018-03-02T20:49:55.065Z,0.04
2018-03-02T20:51:32.842Z,-0.23
2018-03-02T20:53:10.205Z,-0.51
2018-03-02T20:54:48.669Z,-0.56
2018-03-02T20:56:26.297Z,-0.61
2018-03-02T20:58:04.091Z,-0.58
2018-03-02T20:59:41.995Z,-0.49
2018-03-02T21:01:20.614Z,-0.75
2018-03-02T21:03:00.584Z,-0.94
2018-03-02T21:04:38.228Z,-0.97
2018-03-02T21:06:17.137Z,-0.94
2018-03-02T21:07:55.530Z,-1.01
2018-03-02T21:09:33.232Z,-1.10
2018-03-02T21:11:10.506Z,-1.11
2018-03-02T21:12:47.440Z,-1.05
2018-03-02T21:14:25.376Z,-1.05
2018-03-02T21:16:05.423Z,-1.06
2018-03-02T21:17:42.905Z,-1.04
2018-03-02T21:19:19.896Z,-1.01
2018-03-02T21:20:58.755Z,-1.15
2018-03-02T21:22:37.178Z,-1.26
2018-03-02T21:24:14.685Z,-1.23
2018-03-02T21:25:51.808Z,-1.21
2018-03-02T21:27:29.367Z,-1.17
2018-03-02T21:29:06.741Z,-1.13
2018-03-02T21:30:45.635Z,-1.15
2018-03-02T21:32:22.878Z,-1.19
2018-03-02T21:34:01.188Z,-1.20
2018-03-02T21:35:39.418Z,-1.18
2018-03-02T21:37:17.703Z,-1.11
2018-03-02T21:38:55.008Z,-1.18
2018-03-02T21:40:32.916Z,-1.18
2018-03-02T21:42:10.230Z,-1.19
2018-03-02T21:43:49.199Z,-1.15
2018-03-02T21:45:29.213Z,-1.18
2018-03-02T21:47:08.229Z,-1.17
2018-03-02T21:48:53.393Z,-1.27